sensor_id;sensor_type;location;lat;lon;timestamp;temperature;humidity
1812;DHT22;904;47.814;11.134;2023-02-15T00:01:49;1.90;82.30
1812;DHT22;904;47.814;11.134;2023-02-15T00:04:19;1.90;82.30
1812;DHT22;904;47.814;11.134;2023-02-15T00:06:46;1.90;82.40
1812;DHT22;904;47.814;11.134;2023-02-15T00:09:16;1.80;82.30
1812;DHT22;904;47.814;11.134;2023-02-15T00:11:43;1.80;82.40
1812;DHT22;904;47.814;11.134;2023-02-15T00:14:17;1.80;82.60
1812;DHT22;904;47.814;11.134;2023-02-15T00:16:46;1.80;82.40
1812;DHT22;904;47.814;11.134;2023-02-15T00:19:16;1.80;82.60
1812;DHT22;904;47.814;11.134;2023-02-15T00:21:44;1.80;82.40
1812;DHT22;904;47.814;11.134;2023-02-15T00:24:13;1.80;81.90
1812;DHT22;904;47.814;11.134;2023-02-15T00:26:43;1.80;82.10
1812;DHT22;904;47.814;11.134;2023-02-15T00:29:11;1.80;81.40
1812;DHT22;904;47.814;11.134;2023-02-15T00:31:39;1.70;81.90
1812;DHT22;904;47.814;11.134;2023-02-15T00:34:09;1.60;82.70
1812;DHT22;904;47.814;11.134;2023-02-15T00:36:37;1.60;83.10
1812;DHT22;904;47.814;11.134;2023-02-15T00:39:05;1.60;83.20
1812;DHT22;904;47.814;11.134;2023-02-15T00:41:32;1.60;83.50
1812;DHT22;904;47.814;11.134;2023-02-15T00:44:02;1.60;84.10
1812;DHT22;904;47.814;11.134;2023-02-15T00:46:30;1.60;84.40
1812;DHT22;904;47.814;11.134;2023-02-15T00:48:57;1.60;84.60
1812;DHT22;904;47.814;11.134;2023-02-15T00:51:24;1.50;84.30
1812;DHT22;904;47.814;11.134;2023-02-15T00:53:52;1.60;84.30
1812;DHT22;904;47.814;11.134;2023-02-15T00:56:20;1.60;84.30
1812;DHT22;904;47.814;11.134;2023-02-15T00:58:47;1.60;83.90
1812;DHT22;904;47.814;11.134;2023-02-15T01:01:17;1.60;83.90
1812;DHT22;904;47.814;11.134;2023-02-15T01:03:45;1.50;84.40
1812;DHT22;904;47.814;11.134;2023-02-15T01:06:13;1.50;85.20
1812;DHT22;904;47.814;11.134;2023-02-15T01:08:43;1.50;85.50
1812;DHT22;904;47.814;11.134;2023-02-15T01:11:12;1.50;85.90
1812;DHT22;904;47.814;11.134;2023-02-15T01:13:40;1.40;85.80
1812;DHT22;904;47.814;11.134;2023-02-15T01:16:08;1.40;85.50
1812;DHT22;904;47.814;11.134;2023-02-15T01:18:36;1.40;84.70
1812;DHT22;904;47.814;11.134;2023-02-15T01:21:10;1.30;84.70
1812;DHT22;904;47.814;11.134;2023-02-15T01:23:39;1.30;84.20
1812;DHT22;904;47.814;11.134;2023-02-15T01:26:06;1.30;84.90
1812;DHT22;904;47.814;11.134;2023-02-15T01:28:34;1.30;84.70
1812;DHT22;904;47.814;11.134;2023-02-15T01:31:05;1.20;84.60
1812;DHT22;904;47.814;11.134;2023-02-15T01:33:33;1.20;85.00
1812;DHT22;904;47.814;11.134;2023-02-15T01:36:02;1.20;86.10
1812;DHT22;904;47.814;11.134;2023-02-15T01:38:30;1.20;86.80
1812;DHT22;904;47.814;11.134;2023-02-15T01:40:57;1.20;86.60
1812;DHT22;904;47.814;11.134;2023-02-15T01:43:47;1.20;86.60
1812;DHT22;904;47.814;11.134;2023-02-15T01:46:16;1.20;86.90
1812;DHT22;904;47.814;11.134;2023-02-15T01:48:47;1.20;86.20
1812;DHT22;904;47.814;11.134;2023-02-15T01:51:18;1.10;86.30
1812;DHT22;904;47.814;11.134;2023-02-15T01:53:50;1.10;86.70
1812;DHT22;904;47.814;11.134;2023-02-15T01:56:19;1.10;85.90
1812;DHT22;904;47.814;11.134;2023-02-15T01:58:49;1.10;85.40
1812;DHT22;904;47.814;11.134;2023-02-15T02:01:19;1.20;84.50
1812;DHT22;904;47.814;11.134;2023-02-15T02:03:53;1.20;83.60
1812;DHT22;904;47.814;11.134;2023-02-15T02:06:24;1.10;83.50
1812;DHT22;904;47.814;11.134;2023-02-15T02:08:53;1.10;83.60
1812;DHT22;904;47.814;11.134;2023-02-15T02:11:20;1.20;83.20
1812;DHT22;904;47.814;11.134;2023-02-15T02:13:48;1.10;83.20
1812;DHT22;904;47.814;11.134;2023-02-15T02:16:22;1.10;83.80
1812;DHT22;904;47.814;11.134;2023-02-15T02:19:04;1.00;84.50
1812;DHT22;904;47.814;11.134;2023-02-15T02:25:10;1.00;84.90
1812;DHT22;904;47.814;11.134;2023-02-15T02:27:41;1.00;84.50
1812;DHT22;904;47.814;11.134;2023-02-15T02:30:31;0.80;83.90
1812;DHT22;904;47.814;11.134;2023-02-15T02:36:04;0.70;85.30
1812;DHT22;904;47.814;11.134;2023-02-15T02:38:40;0.70;85.00
1812;DHT22;904;47.814;11.134;2023-02-15T02:41:15;0.70;85.20
1812;DHT22;904;47.814;11.134;2023-02-15T02:43:49;0.60;85.40
1812;DHT22;904;47.814;11.134;2023-02-15T02:46:22;0.60;85.20
1812;DHT22;904;47.814;11.134;2023-02-15T02:48:53;0.60;85.20
1812;DHT22;904;47.814;11.134;2023-02-15T02:51:20;0.60;85.50
1812;DHT22;904;47.814;11.134;2023-02-15T02:53:50;0.60;85.00
1812;DHT22;904;47.814;11.134;2023-02-15T02:56:22;0.50;85.20
1812;DHT22;904;47.814;11.134;2023-02-15T02:58:54;0.60;85.90
1812;DHT22;904;47.814;11.134;2023-02-15T03:01:26;0.50;86.50
1812;DHT22;904;47.814;11.134;2023-02-15T03:03:58;0.60;86.70
1812;DHT22;904;47.814;11.134;2023-02-15T03:06:30;0.60;85.80
1812;DHT22;904;47.814;11.134;2023-02-15T03:09:08;0.70;85.70
1812;DHT22;904;47.814;11.134;2023-02-15T03:11:42;0.60;84.40
1812;DHT22;904;47.814;11.134;2023-02-15T03:14:10;0.60;84.30
1812;DHT22;904;47.814;11.134;2023-02-15T03:16:40;0.60;84.10
1812;DHT22;904;47.814;11.134;2023-02-15T03:19:14;0.50;83.70
1812;DHT22;904;47.814;11.134;2023-02-15T03:21:44;0.60;83.50
1812;DHT22;904;47.814;11.134;2023-02-15T03:24:26;0.40;83.10
1812;DHT22;904;47.814;11.134;2023-02-15T03:26:56;0.40;84.40
1812;DHT22;904;47.814;11.134;2023-02-15T03:29:25;0.40;84.10
1812;DHT22;904;47.814;11.134;2023-02-15T03:31:57;0.40;84.70
1812;DHT22;904;47.814;11.134;2023-02-15T03:34:28;0.40;84.50
1812;DHT22;904;47.814;11.134;2023-02-15T03:36:59;0.30;84.40
1812;DHT22;904;47.814;11.134;2023-02-15T03:39:32;0.30;84.60
1812;DHT22;904;47.814;11.134;2023-02-15T03:42:08;0.40;84.50
1812;DHT22;904;47.814;11.134;2023-02-15T03:44:47;0.30;84.50
1812;DHT22;904;47.814;11.134;2023-02-15T03:47:19;0.30;84.70
1812;DHT22;904;47.814;11.134;2023-02-15T03:49:53;0.30;85.10
1812;DHT22;904;47.814;11.134;2023-02-15T03:52:25;0.30;84.50
1812;DHT22;904;47.814;11.134;2023-02-15T03:54:53;0.20;84.40
1812;DHT22;904;47.814;11.134;2023-02-15T03:57:21;0.20;83.50
1812;DHT22;904;47.814;11.134;2023-02-15T04:00:12;0.10;84.50
1812;DHT22;904;47.814;11.134;2023-02-15T04:03:15;0.10;85.20
1812;DHT22;904;47.814;11.134;2023-02-15T04:05:48;0.00;85.20
1812;DHT22;904;47.814;11.134;2023-02-15T04:08:15;0.00;85.20
1812;DHT22;904;47.814;11.134;2023-02-15T04:10:43;0.00;85.20
1812;DHT22;904;47.814;11.134;2023-02-15T04:13:18;-0.10;84.90
1812;DHT22;904;47.814;11.134;2023-02-15T04:15:45;-0.10;84.30
1812;DHT22;904;47.814;11.134;2023-02-15T04:18:30;-0.20;85.10
1812;DHT22;904;47.814;11.134;2023-02-15T04:21:16;-0.20;85.10
1812;DHT22;904;47.814;11.134;2023-02-15T04:24:01;-0.20;83.50
1812;DHT22;904;47.814;11.134;2023-02-15T04:26:46;-0.30;83.60
1812;DHT22;904;47.814;11.134;2023-02-15T04:29:15;-0.30;82.50
1812;DHT22;904;47.814;11.134;2023-02-15T04:31:42;-0.40;81.90
1812;DHT22;904;47.814;11.134;2023-02-15T04:34:09;-0.40;82.10
1812;DHT22;904;47.814;11.134;2023-02-15T04:36:38;-0.50;82.30
1812;DHT22;904;47.814;11.134;2023-02-15T04:39:06;-0.50;82.00
1812;DHT22;904;47.814;11.134;2023-02-15T04:41:34;-0.40;81.90
1812;DHT22;904;47.814;11.134;2023-02-15T04:44:01;-0.50;81.40
1812;DHT22;904;47.814;11.134;2023-02-15T04:46:29;-0.40;81.70
1812;DHT22;904;47.814;11.134;2023-02-15T04:48:56;-0.50;81.00
1812;DHT22;904;47.814;11.134;2023-02-15T04:51:24;-0.50;81.00
1812;DHT22;904;47.814;11.134;2023-02-15T04:53:52;-0.60;81.80
1812;DHT22;904;47.814;11.134;2023-02-15T04:56:20;-0.60;82.10
1812;DHT22;904;47.814;11.134;2023-02-15T04:58:48;-0.60;82.60
1812;DHT22;904;47.814;11.134;2023-02-15T05:01:15;-0.50;81.90
1812;DHT22;904;47.814;11.134;2023-02-15T05:03:42;-0.50;81.30
1812;DHT22;904;47.814;11.134;2023-02-15T05:06:09;-0.60;81.50
1812;DHT22;904;47.814;11.134;2023-02-15T05:08:37;-0.50;81.90
1812;DHT22;904;47.814;11.134;2023-02-15T05:11:05;-0.50;81.60
1812;DHT22;904;47.814;11.134;2023-02-15T05:13:32;-0.50;81.40
1812;DHT22;904;47.814;11.134;2023-02-15T05:16:00;-0.50;82.10
1812;DHT22;904;47.814;11.134;2023-02-15T05:18:27;-0.60;80.50
1812;DHT22;904;47.814;11.134;2023-02-15T05:20:54;-0.60;80.10
1812;DHT22;904;47.814;11.134;2023-02-15T05:23:23;-0.60;80.10
1812;DHT22;904;47.814;11.134;2023-02-15T05:25:50;-0.60;80.10
1812;DHT22;904;47.814;11.134;2023-02-15T05:28:37;-0.60;79.90
1812;DHT22;904;47.814;11.134;2023-02-15T05:31:06;-0.60;79.60
1812;DHT22;904;47.814;11.134;2023-02-15T05:33:34;-0.70;79.50
1812;DHT22;904;47.814;11.134;2023-02-15T05:36:02;-0.70;79.40
1812;DHT22;904;47.814;11.134;2023-02-15T05:38:29;-0.70;79.40
1812;DHT22;904;47.814;11.134;2023-02-15T05:40:57;-0.70;79.10
1812;DHT22;904;47.814;11.134;2023-02-15T05:43:25;-0.70;79.10
1812;DHT22;904;47.814;11.134;2023-02-15T05:45:54;-0.80;79.50
1812;DHT22;904;47.814;11.134;2023-02-15T05:48:23;-0.80;80.30
1812;DHT22;904;47.814;11.134;2023-02-15T05:50:57;-0.80;80.10
1812;DHT22;904;47.814;11.134;2023-02-15T05:53:25;-0.80;80.10
1812;DHT22;904;47.814;11.134;2023-02-15T05:55:52;-0.80;79.80
1812;DHT22;904;47.814;11.134;2023-02-15T05:58:24;-0.90;79.50
1812;DHT22;904;47.814;11.134;2023-02-15T06:00:54;-0.90;78.80
1812;DHT22;904;47.814;11.134;2023-02-15T06:03:21;-1.00;79.40
1812;DHT22;904;47.814;11.134;2023-02-15T06:05:49;-1.10;79.10
1812;DHT22;904;47.814;11.134;2023-02-15T06:08:16;-1.10;79.00
1812;DHT22;904;47.814;11.134;2023-02-15T06:10:43;-1.10;79.40
1812;DHT22;904;47.814;11.134;2023-02-15T06:13:12;-1.10;79.30
1812;DHT22;904;47.814;11.134;2023-02-15T06:15:41;-1.20;78.00
1812;DHT22;904;47.814;11.134;2023-02-15T06:18:09;-1.40;78.20
1812;DHT22;904;47.814;11.134;2023-02-15T06:20:36;-1.50;78.50
1812;DHT22;904;47.814;11.134;2023-02-15T06:23:03;-1.60;79.40
1812;DHT22;904;47.814;11.134;2023-02-15T06:25:30;-1.60;79.70
1812;DHT22;904;47.814;11.134;2023-02-15T06:27:58;-1.50;79.80
1812;DHT22;904;47.814;11.134;2023-02-15T06:30:25;-1.50;79.00
1812;DHT22;904;47.814;11.134;2023-02-15T06:32:52;-1.60;79.30
1812;DHT22;904;47.814;11.134;2023-02-15T06:35:20;-1.60;79.40
1812;DHT22;904;47.814;11.134;2023-02-15T06:37:48;-1.60;79.00
1812;DHT22;904;47.814;11.134;2023-02-15T06:40:15;-1.60;79.00
1812;DHT22;904;47.814;11.134;2023-02-15T06:42:42;-1.60;78.80
1812;DHT22;904;47.814;11.134;2023-02-15T06:45:13;-1.60;79.30
1812;DHT22;904;47.814;11.134;2023-02-15T06:47:40;-1.60;79.10
1812;DHT22;904;47.814;11.134;2023-02-15T06:50:08;-1.50;79.50
1812;DHT22;904;47.814;11.134;2023-02-15T06:52:37;-1.40;79.60
1812;DHT22;904;47.814;11.134;2023-02-15T06:55:05;-1.40;80.10
1812;DHT22;904;47.814;11.134;2023-02-15T06:57:32;-1.20;80.00
1812;DHT22;904;47.814;11.134;2023-02-15T06:59:59;-1.00;80.20
1812;DHT22;904;47.814;11.134;2023-02-15T07:02:27;-0.70;78.40
1812;DHT22;904;47.814;11.134;2023-02-15T07:04:56;-0.70;78.50
1812;DHT22;904;47.814;11.134;2023-02-15T07:07:23;-0.50;78.10
1812;DHT22;904;47.814;11.134;2023-02-15T07:09:52;-0.20;77.00
1812;DHT22;904;47.814;11.134;2023-02-15T07:12:19;0.00;75.30
1812;DHT22;904;47.814;11.134;2023-02-15T07:15:05;0.20;73.70
1812;DHT22;904;47.814;11.134;2023-02-15T07:17:35;0.40;73.30
1812;DHT22;904;47.814;11.134;2023-02-15T07:20:03;0.70;73.70
1812;DHT22;904;47.814;11.134;2023-02-15T07:22:31;0.90;73.20
1812;DHT22;904;47.814;11.134;2023-02-15T07:25:00;1.30;71.90
1812;DHT22;904;47.814;11.134;2023-02-15T07:27:27;1.60;70.30
1812;DHT22;904;47.814;11.134;2023-02-15T07:29:54;1.90;68.60
1812;DHT22;904;47.814;11.134;2023-02-15T07:32:21;2.20;67.80
1812;DHT22;904;47.814;11.134;2023-02-15T07:34:48;2.60;66.90
1812;DHT22;904;47.814;11.134;2023-02-15T07:37:15;2.90;66.70
1812;DHT22;904;47.814;11.134;2023-02-15T07:39:42;3.30;66.10
1812;DHT22;904;47.814;11.134;2023-02-15T07:42:10;3.70;64.60
1812;DHT22;904;47.814;11.134;2023-02-15T07:44:37;4.10;62.20
1812;DHT22;904;47.814;11.134;2023-02-15T07:47:04;4.50;61.00
1812;DHT22;904;47.814;11.134;2023-02-15T07:49:31;4.90;59.40
1812;DHT22;904;47.814;11.134;2023-02-15T07:52:00;5.20;58.50
1812;DHT22;904;47.814;11.134;2023-02-15T07:54:27;5.70;57.10
1812;DHT22;904;47.814;11.134;2023-02-15T07:56:54;6.10;57.00
1812;DHT22;904;47.814;11.134;2023-02-15T07:59:22;6.40;55.20
1812;DHT22;904;47.814;11.134;2023-02-15T08:01:50;6.80;54.40
1812;DHT22;904;47.814;11.134;2023-02-15T08:04:18;7.10;53.80
1812;DHT22;904;47.814;11.134;2023-02-15T08:06:45;7.50;53.00
1812;DHT22;904;47.814;11.134;2023-02-15T08:09:12;7.90;52.40
1812;DHT22;904;47.814;11.134;2023-02-15T08:11:39;8.20;51.60
1812;DHT22;904;47.814;11.134;2023-02-15T08:14:13;8.60;49.90
1812;DHT22;904;47.814;11.134;2023-02-15T08:16:43;8.90;48.40
1812;DHT22;904;47.814;11.134;2023-02-15T08:19:12;9.20;48.20
1812;DHT22;904;47.814;11.134;2023-02-15T08:21:41;9.70;47.00
1812;DHT22;904;47.814;11.134;2023-02-15T08:24:10;10.00;45.80
1812;DHT22;904;47.814;11.134;2023-02-15T08:26:38;10.30;44.90
1812;DHT22;904;47.814;11.134;2023-02-15T08:29:06;10.60;43.50
1812;DHT22;904;47.814;11.134;2023-02-15T08:31:34;10.70;43.70
1812;DHT22;904;47.814;11.134;2023-02-15T08:34:04;11.00;43.30
1812;DHT22;904;47.814;11.134;2023-02-15T08:36:32;11.40;43.00
1812;DHT22;904;47.814;11.134;2023-02-15T08:39:02;11.80;42.10
1812;DHT22;904;47.814;11.134;2023-02-15T08:41:31;12.20;41.30
1812;DHT22;904;47.814;11.134;2023-02-15T08:44:01;12.50;40.70
1812;DHT22;904;47.814;11.134;2023-02-15T08:46:30;12.80;39.90
1812;DHT22;904;47.814;11.134;2023-02-15T08:48:57;13.10;39.50
1812;DHT22;904;47.814;11.134;2023-02-15T08:51:27;13.50;39.20
1812;DHT22;904;47.814;11.134;2023-02-15T08:53:56;13.80;38.30
1812;DHT22;904;47.814;11.134;2023-02-15T08:56:26;14.10;38.10
1812;DHT22;904;47.814;11.134;2023-02-15T08:58:53;14.40;36.60
1812;DHT22;904;47.814;11.134;2023-02-15T09:01:22;14.50;37.60
1812;DHT22;904;47.814;11.134;2023-02-15T09:03:51;14.90;36.70
1812;DHT22;904;47.814;11.134;2023-02-15T09:06:19;15.30;36.20
1812;DHT22;904;47.814;11.134;2023-02-15T09:08:48;15.60;35.60
1812;DHT22;904;47.814;11.134;2023-02-15T09:11:17;15.70;35.20
1812;DHT22;904;47.814;11.134;2023-02-15T09:13:51;16.10;34.90
1812;DHT22;904;47.814;11.134;2023-02-15T09:16:19;16.40;34.80
1812;DHT22;904;47.814;11.134;2023-02-15T09:18:52;16.70;34.30
1812;DHT22;904;47.814;11.134;2023-02-15T09:21:20;16.90;33.30
1812;DHT22;904;47.814;11.134;2023-02-15T09:23:50;17.20;33.70
1812;DHT22;904;47.814;11.134;2023-02-15T09:26:19;17.40;32.80
1812;DHT22;904;47.814;11.134;2023-02-15T09:28:47;17.60;33.10
1812;DHT22;904;47.814;11.134;2023-02-15T09:31:16;17.80;32.60
1812;DHT22;904;47.814;11.134;2023-02-15T09:33:45;18.10;32.20
1812;DHT22;904;47.814;11.134;2023-02-15T09:36:15;18.30;31.80
1812;DHT22;904;47.814;11.134;2023-02-15T09:38:43;18.60;32.10
1812;DHT22;904;47.814;11.134;2023-02-15T09:41:53;18.80;31.90
1812;DHT22;904;47.814;11.134;2023-02-15T09:44:30;18.90;31.50
1812;DHT22;904;47.814;11.134;2023-02-15T09:47:15;19.00;30.50
1812;DHT22;904;47.814;11.134;2023-02-15T09:49:50;19.40;31.30
1812;DHT22;904;47.814;11.134;2023-02-15T09:52:33;19.60;30.70
1812;DHT22;904;47.814;11.134;2023-02-15T09:55:17;19.90;30.40
1812;DHT22;904;47.814;11.134;2023-02-15T09:57:51;20.00;30.60
1812;DHT22;904;47.814;11.134;2023-02-15T10:00:28;20.30;30.70
1812;DHT22;904;47.814;11.134;2023-02-15T10:03:09;20.50;30.40
1812;DHT22;904;47.814;11.134;2023-02-15T10:05:43;20.80;30.50
1812;DHT22;904;47.814;11.134;2023-02-15T10:08:37;21.10;30.50
1812;DHT22;904;47.814;11.134;2023-02-15T10:11:13;21.40;29.90
1812;DHT22;904;47.814;11.134;2023-02-15T10:14:10;21.70;29.80
1812;DHT22;904;47.814;11.134;2023-02-15T10:16:45;21.80;29.40
1812;DHT22;904;47.814;11.134;2023-02-15T10:19:20;22.10;29.80
1812;DHT22;904;47.814;11.134;2023-02-15T10:21:58;22.30;29.50
1812;DHT22;904;47.814;11.134;2023-02-15T10:24:38;22.50;28.80
1812;DHT22;904;47.814;11.134;2023-02-15T10:27:12;22.70;28.70
1812;DHT22;904;47.814;11.134;2023-02-15T10:29:46;22.90;29.10
1812;DHT22;904;47.814;11.134;2023-02-15T10:32:22;22.90;28.20
1812;DHT22;904;47.814;11.134;2023-02-15T10:34:52;23.00;27.90
1812;DHT22;904;47.814;11.134;2023-02-15T10:37:45;23.10;27.40
1812;DHT22;904;47.814;11.134;2023-02-15T10:40:22;23.30;27.20
1812;DHT22;904;47.814;11.134;2023-02-15T10:43:05;23.50;27.10
1812;DHT22;904;47.814;11.134;2023-02-15T10:45:44;23.60;27.10
1812;DHT22;904;47.814;11.134;2023-02-15T10:48:26;23.60;27.50
1812;DHT22;904;47.814;11.134;2023-02-15T10:50:59;23.80;27.10
1812;DHT22;904;47.814;11.134;2023-02-15T10:56:29;24.10;27.10
1812;DHT22;904;47.814;11.134;2023-02-15T10:59:19;24.40;26.70
1812;DHT22;904;47.814;11.134;2023-02-15T11:01:55;24.60;26.50
1812;DHT22;904;47.814;11.134;2023-02-15T11:04:44;24.70;25.70
1812;DHT22;904;47.814;11.134;2023-02-15T11:07:17;24.90;26.70
1812;DHT22;904;47.814;11.134;2023-02-15T11:09:48;25.20;25.70
1812;DHT22;904;47.814;11.134;2023-02-15T11:12:17;25.20;25.40
1812;DHT22;904;47.814;11.134;2023-02-15T11:14:49;25.30;25.10
1812;DHT22;904;47.814;11.134;2023-02-15T11:17:23;25.50;25.00
1812;DHT22;904;47.814;11.134;2023-02-15T11:19:58;25.60;25.00
1812;DHT22;904;47.814;11.134;2023-02-15T11:22:29;25.70;24.60
1812;DHT22;904;47.814;11.134;2023-02-15T11:24:58;25.80;23.80
1812;DHT22;904;47.814;11.134;2023-02-15T11:27:29;25.80;23.60
1812;DHT22;904;47.814;11.134;2023-02-15T11:30:03;26.00;23.50
1812;DHT22;904;47.814;11.134;2023-02-15T11:32:38;26.20;23.10
1812;DHT22;904;47.814;11.134;2023-02-15T11:35:22;26.30;22.90
1812;DHT22;904;47.814;11.134;2023-02-15T11:37:54;26.30;23.40
1812;DHT22;904;47.814;11.134;2023-02-15T11:40:26;26.40;23.40
1812;DHT22;904;47.814;11.134;2023-02-15T11:42:56;26.60;22.90
1812;DHT22;904;47.814;11.134;2023-02-15T11:45:27;26.80;22.30
1812;DHT22;904;47.814;11.134;2023-02-15T11:47:56;26.80;22.50
1812;DHT22;904;47.814;11.134;2023-02-15T11:50:31;26.80;22.40
1812;DHT22;904;47.814;11.134;2023-02-15T11:53:01;26.80;22.60
1812;DHT22;904;47.814;11.134;2023-02-15T11:55:30;26.90;22.10
1812;DHT22;904;47.814;11.134;2023-02-15T11:58:02;27.00;22.00
1812;DHT22;904;47.814;11.134;2023-02-15T12:00:34;27.10;21.80
1812;DHT22;904;47.814;11.134;2023-02-15T12:03:19;27.20;21.10
1812;DHT22;904;47.814;11.134;2023-02-15T12:05:53;27.20;21.30
1812;DHT22;904;47.814;11.134;2023-02-15T12:08:23;27.20;21.40
1812;DHT22;904;47.814;11.134;2023-02-15T12:10:58;27.20;21.40
1812;DHT22;904;47.814;11.134;2023-02-15T12:13:27;27.30;21.20
1812;DHT22;904;47.814;11.134;2023-02-15T12:15:58;27.30;22.10
1812;DHT22;904;47.814;11.134;2023-02-15T12:18:37;27.50;20.70
1812;DHT22;904;47.814;11.134;2023-02-15T12:21:07;27.60;20.20
1812;DHT22;904;47.814;11.134;2023-02-15T12:23:42;27.60;19.20
1812;DHT22;904;47.814;11.134;2023-02-15T12:26:10;27.60;19.40
1812;DHT22;904;47.814;11.134;2023-02-15T12:28:40;27.70;19.30
1812;DHT22;904;47.814;11.134;2023-02-15T12:31:10;27.70;18.70
1812;DHT22;904;47.814;11.134;2023-02-15T12:33:47;27.80;19.10
1812;DHT22;904;47.814;11.134;2023-02-15T12:36:17;27.90;19.00
1812;DHT22;904;47.814;11.134;2023-02-15T12:39:04;27.80;19.10
1812;DHT22;904;47.814;11.134;2023-02-15T12:41:32;27.70;18.80
1812;DHT22;904;47.814;11.134;2023-02-15T12:44:05;27.70;19.00
1812;DHT22;904;47.814;11.134;2023-02-15T12:46:33;27.70;19.30
1812;DHT22;904;47.814;11.134;2023-02-15T12:49:16;27.70;19.20
1812;DHT22;904;47.814;11.134;2023-02-15T12:51:48;27.60;19.20
1812;DHT22;904;47.814;11.134;2023-02-15T12:54:35;27.50;19.20
1812;DHT22;904;47.814;11.134;2023-02-15T12:57:31;27.50;19.50
1812;DHT22;904;47.814;11.134;2023-02-15T12:59:59;27.50;19.20
1812;DHT22;904;47.814;11.134;2023-02-15T13:02:31;27.50;19.20
1812;DHT22;904;47.814;11.134;2023-02-15T13:05:14;27.30;19.40
1812;DHT22;904;47.814;11.134;2023-02-15T13:07:46;27.30;18.90
1812;DHT22;904;47.814;11.134;2023-02-15T13:10:26;27.20;19.40
1812;DHT22;904;47.814;11.134;2023-02-15T13:12:55;27.00;19.30
1812;DHT22;904;47.814;11.134;2023-02-15T13:15:34;26.80;19.10
1812;DHT22;904;47.814;11.134;2023-02-15T13:18:03;26.70;19.40
1812;DHT22;904;47.814;11.134;2023-02-15T13:20:34;26.60;19.30
1812;DHT22;904;47.814;11.134;2023-02-15T13:23:04;26.50;19.10
1812;DHT22;904;47.814;11.134;2023-02-15T13:25:37;26.40;19.20
1812;DHT22;904;47.814;11.134;2023-02-15T13:28:11;26.20;19.60
1812;DHT22;904;47.814;11.134;2023-02-15T13:30:44;26.10;20.10
1812;DHT22;904;47.814;11.134;2023-02-15T13:33:17;25.90;20.30
1812;DHT22;904;47.814;11.134;2023-02-15T13:35:52;25.90;20.50
1812;DHT22;904;47.814;11.134;2023-02-15T13:38:55;25.80;20.70
1812;DHT22;904;47.814;11.134;2023-02-15T13:41:29;25.50;20.80
1812;DHT22;904;47.814;11.134;2023-02-15T13:44:08;25.30;21.40
1812;DHT22;904;47.814;11.134;2023-02-15T13:46:52;25.20;21.30
1812;DHT22;904;47.814;11.134;2023-02-15T13:49:34;25.10;21.50
1812;DHT22;904;47.814;11.134;2023-02-15T13:52:13;25.00;21.40
1812;DHT22;904;47.814;11.134;2023-02-15T13:55:16;24.80;21.90
1812;DHT22;904;47.814;11.134;2023-02-15T14:00:47;23.90;22.10
1812;DHT22;904;47.814;11.134;2023-02-15T14:06:52;23.20;23.40
1812;DHT22;904;47.814;11.134;2023-02-15T14:09:36;22.80;23.50
1812;DHT22;904;47.814;11.134;2023-02-15T14:12:21;22.50;24.20
1812;DHT22;904;47.814;11.134;2023-02-15T14:15:06;22.20;24.70
1812;DHT22;904;47.814;11.134;2023-02-15T14:17:44;21.80;24.80
1812;DHT22;904;47.814;11.134;2023-02-15T14:20:20;21.50;25.00
1812;DHT22;904;47.814;11.134;2023-02-15T14:22:55;21.30;25.40
1812;DHT22;904;47.814;11.134;2023-02-15T14:25:31;21.10;25.30
1812;DHT22;904;47.814;11.134;2023-02-15T14:28:06;20.90;25.70
1812;DHT22;904;47.814;11.134;2023-02-15T14:30:37;20.60;26.10
1812;DHT22;904;47.814;11.134;2023-02-15T14:33:17;20.40;26.40
1812;DHT22;904;47.814;11.134;2023-02-15T14:35:48;20.20;26.70
1812;DHT22;904;47.814;11.134;2023-02-15T14:38:21;20.00;26.60
1812;DHT22;904;47.814;11.134;2023-02-15T14:40:56;19.70;26.90
1812;DHT22;904;47.814;11.134;2023-02-15T14:43:40;19.40;27.30
1812;DHT22;904;47.814;11.134;2023-02-15T14:46:18;19.20;27.80
1812;DHT22;904;47.814;11.134;2023-02-15T14:48:48;18.90;28.40
1812;DHT22;904;47.814;11.134;2023-02-15T14:54:53;18.40;29.00
1812;DHT22;904;47.814;11.134;2023-02-15T14:57:24;18.20;29.00
1812;DHT22;904;47.814;11.134;2023-02-15T14:59:54;17.90;29.50
1812;DHT22;904;47.814;11.134;2023-02-15T15:02:25;17.70;29.80
1812;DHT22;904;47.814;11.134;2023-02-15T15:04:59;17.50;30.00
1812;DHT22;904;47.814;11.134;2023-02-15T15:07:34;17.30;29.80
1812;DHT22;904;47.814;11.134;2023-02-15T15:10:04;17.10;29.70
1812;DHT22;904;47.814;11.134;2023-02-15T15:12:43;16.90;29.60
1812;DHT22;904;47.814;11.134;2023-02-15T15:15:14;16.70;29.60
1812;DHT22;904;47.814;11.134;2023-02-15T15:18:00;16.50;29.70
1812;DHT22;904;47.814;11.134;2023-02-15T15:20:43;16.30;30.00
1812;DHT22;904;47.814;11.134;2023-02-15T15:23:38;16.20;30.40
1812;DHT22;904;47.814;11.134;2023-02-15T15:26:27;16.00;30.80
1812;DHT22;904;47.814;11.134;2023-02-15T15:29:01;15.80;31.10
1812;DHT22;904;47.814;11.134;2023-02-15T15:31:39;15.70;31.90
1812;DHT22;904;47.814;11.134;2023-02-15T15:37:42;15.60;32.50
1812;DHT22;904;47.814;11.134;2023-02-15T15:40:35;15.60;32.80
1812;DHT22;904;47.814;11.134;2023-02-15T15:46:43;15.30;33.70
1812;DHT22;904;47.814;11.134;2023-02-15T15:49:16;15.10;34.00
1812;DHT22;904;47.814;11.134;2023-02-15T15:51:45;15.00;34.40
1812;DHT22;904;47.814;11.134;2023-02-15T15:54:15;14.80;34.70
1812;DHT22;904;47.814;11.134;2023-02-15T15:56:46;14.70;34.90
1812;DHT22;904;47.814;11.134;2023-02-15T15:59:18;14.60;35.10
1812;DHT22;904;47.814;11.134;2023-02-15T16:01:48;14.50;35.40
1812;DHT22;904;47.814;11.134;2023-02-15T16:04:23;14.40;35.90
1812;DHT22;904;47.814;11.134;2023-02-15T16:06:51;14.30;36.10
1812;DHT22;904;47.814;11.134;2023-02-15T16:09:19;14.10;36.30
1812;DHT22;904;47.814;11.134;2023-02-15T16:11:48;14.10;36.70
1812;DHT22;904;47.814;11.134;2023-02-15T16:14:19;13.90;37.10
1812;DHT22;904;47.814;11.134;2023-02-15T16:16:53;13.80;37.40
1812;DHT22;904;47.814;11.134;2023-02-15T16:19:26;13.70;37.50
1812;DHT22;904;47.814;11.134;2023-02-15T16:21:54;13.60;37.70
1812;DHT22;904;47.814;11.134;2023-02-15T16:24:54;13.50;37.90
1812;DHT22;904;47.814;11.134;2023-02-15T16:27:34;13.40;38.30
1812;DHT22;904;47.814;11.134;2023-02-15T16:30:22;13.20;38.90
1812;DHT22;904;47.814;11.134;2023-02-15T16:32:57;13.10;40.10
1812;DHT22;904;47.814;11.134;2023-02-15T16:35:29;13.00;40.50
1812;DHT22;904;47.814;11.134;2023-02-15T16:37:56;12.90;40.60
1812;DHT22;904;47.814;11.134;2023-02-15T16:40:42;12.70;40.50
1812;DHT22;904;47.814;11.134;2023-02-15T16:43:16;12.60;40.70
1812;DHT22;904;47.814;11.134;2023-02-15T16:45:45;12.50;41.10
1812;DHT22;904;47.814;11.134;2023-02-15T16:48:18;12.40;41.30
1812;DHT22;904;47.814;11.134;2023-02-15T16:50:49;12.30;41.30
1812;DHT22;904;47.814;11.134;2023-02-15T16:53:20;12.20;41.30
1812;DHT22;904;47.814;11.134;2023-02-15T16:55:50;12.10;41.70
1812;DHT22;904;47.814;11.134;2023-02-15T16:58:25;12.00;41.80
1812;DHT22;904;47.814;11.134;2023-02-15T17:00:56;11.90;42.10
1812;DHT22;904;47.814;11.134;2023-02-15T17:03:26;11.70;42.60
1812;DHT22;904;47.814;11.134;2023-02-15T17:05:54;11.50;43.10
1812;DHT22;904;47.814;11.134;2023-02-15T17:08:28;11.40;43.40